Time;durP1;ratioP1;P1;durP2;ratioP2;P2;SDS_P1;SDS_P2;PMS_P1;PMS_P2;Temp;Humidity;BMP_temperature;BMP_pressure;BME280_temperature;BME280_humidity;BME280_pressure;Samples;Min_cycle;Max_cycle;Signal;HPM_P1;HPM_P2
2024/01/03 00:01:30;;;;;;;10.73;9.97;;;9.60;99.90;;;;;;4900868;29;20201;-78
2024/01/03 00:03:57;;;;;;;10.00;9.50;;;9.60;99.90;;;;;;4901318;29;20571;-78
2024/01/03 00:06:29;;;;;;;10.07;9.50;;;9.70;99.90;;;;;;4892694;29;20287;-78
2024/01/03 00:08:58;;;;;;;9.77;9.10;;;9.70;99.90;;;;;;4901119;29;20569;-76
2024/01/03 00:11:28;;;;;;;9.63;9.13;;;9.60;99.90;;;;;;4900495;29;20634;-77
2024/01/03 00:14:06;;;;;;;9.60;9.10;;;9.60;99.90;;;;;;4901215;29;20211;-77
2024/01/03 00:16:34;;;;;;;10.00;9.30;;;9.60;99.90;;;;;;4901107;29;20252;-77
2024/01/03 00:19:03;;;;;;;9.80;9.20;;;9.60;99.90;;;;;;4899902;29;20695;-77
2024/01/03 00:21:31;;;;;;;9.73;9.20;;;9.50;99.90;;;;;;4900424;29;20252;-77
2024/01/03 00:24:03;;;;;;;10.10;9.50;;;9.40;99.90;;;;;;4900826;29;20201;-76
2024/01/03 00:26:33;;;;;;;10.20;9.60;;;9.30;99.90;;;;;;4900724;29;20200;-77
2024/01/03 00:29:00;;;;;;;10.07;9.47;;;9.30;99.90;;;;;;4907196;29;20744;-77
2024/01/03 00:31:37;;;;;;;10.10;9.50;;;9.20;99.90;;;;;;4898958;29;20197;-77
2024/01/03 00:34:06;;;;;;;11.27;10.47;;;9.10;99.90;;;;;;4899318;29;20252;-77
2024/01/03 00:36:34;;;;;;;10.67;10.07;;;9.10;99.90;;;;;;4901665;29;20205;-77
2024/01/03 00:39:02;;;;;;;10.80;10.10;;;9.10;99.90;;;;;;4899561;29;20210;-77
2024/01/03 00:41:29;;;;;;;11.47;10.60;;;9.00;99.90;;;;;;4900169;29;20220;-77
2024/01/03 00:43:55;;;;;;;10.83;10.13;;;9.00;99.90;;;;;;4898973;29;20608;-77
2024/01/03 00:46:22;;;;;;;11.23;10.33;;;9.10;99.90;;;;;;4899596;29;20208;-78
2024/01/03 00:48:49;;;;;;;10.40;9.80;;;9.10;99.90;;;;;;4899017;29;20204;-77
2024/01/03 00:51:16;;;;;;;10.23;9.73;;;9.10;99.90;;;;;;4898830;29;20189;-77
2024/01/03 00:53:43;;;;;;;10.80;10.10;;;9.10;99.90;;;;;;4898919;29;20243;-77
2024/01/03 00:56:11;;;;;;;10.60;10.00;;;9.20;99.90;;;;;;4898739;29;20211;-77
2024/01/03 00:58:38;;;;;;;10.53;9.83;;;9.20;99.90;;;;;;4899060;29;20556;-77
2024/01/03 01:01:05;;;;;;;10.07;9.57;;;9.20;99.90;;;;;;4899874;29;20699;-77
2024/01/03 01:03:32;;;;;;;10.40;9.70;;;9.10;99.90;;;;;;4898381;29;20699;-77
2024/01/03 01:05:59;;;;;;;10.97;10.27;;;9.00;99.90;;;;;;4898560;29;20208;-76
2024/01/03 01:08:26;;;;;;;10.50;9.80;;;9.00;99.90;;;;;;4899977;29;20552;-77
2024/01/03 01:10:53;;;;;;;10.90;10.20;;;8.90;99.90;;;;;;4898539;29;20205;-77
2024/01/03 01:13:21;;;;;;;10.40;9.80;;;8.90;99.90;;;;;;4897656;29;20250;-77
2024/01/03 01:15:48;;;;;;;10.20;9.60;;;8.90;99.90;;;;;;4900098;29;20276;-77
2024/01/03 01:18:14;;;;;;;10.57;9.97;;;8.90;99.90;;;;;;4899846;29;20200;-77
2024/01/03 01:20:42;;;;;;;10.90;10.30;;;8.90;99.90;;;;;;4898112;29;20228;-78
2024/01/03 01:23:08;;;;;;;11.20;10.60;;;8.90;99.90;;;;;;4899748;29;20216;-77
2024/01/03 01:25:35;;;;;;;11.10;10.40;;;8.90;99.90;;;;;;4898617;29;20205;-77
2024/01/03 01:28:02;;;;;;;10.50;9.90;;;8.90;99.90;;;;;;4898169;29;20212;-77
2024/01/03 01:30:30;;;;;;;10.50;9.90;;;8.90;99.90;;;;;;4899417;29;20192;-76
2024/01/03 01:32:57;;;;;;;10.77;10.07;;;9.00;99.90;;;;;;4898245;29;20639;-77
2024/01/03 01:35:24;;;;;;;10.60;9.90;;;9.00;99.90;;;;;;4899407;29;20562;-78
2024/01/03 01:37:51;;;;;;;10.20;9.60;;;9.10;99.90;;;;;;4898435;29;20211;-77
2024/01/03 01:40:18;;;;;;;9.80;9.30;;;9.10;99.90;;;;;;4899425;29;20715;-77
2024/01/03 01:42:45;;;;;;;10.60;10.00;;;9.10;99.90;;;;;;4898110;29;20232;-76
2024/01/03 01:45:12;;;;;;;10.70;10.00;;;9.00;99.90;;;;;;4898229;29;20264;-77
2024/01/03 01:47:43;;;;;;;10.00;9.40;;;9.00;99.90;;;;;;4899434;29;20669;-77
2024/01/03 01:50:11;;;;;;;10.10;9.50;;;9.00;99.90;;;;;;4897866;29;20252;-77
2024/01/03 01:52:39;;;;;;;10.20;9.70;;;8.90;99.90;;;;;;4898079;29;20228;-77
2024/01/03 01:55:07;;;;;;;10.60;10.00;;;8.90;99.90;;;;;;4899377;29;20208;-77
2024/01/03 01:57:36;;;;;;;10.17;9.67;;;8.80;99.90;;;;;;4897954;29;20268;-77
2024/01/03 02:00:04;;;;;;;10.53;9.93;;;8.80;99.90;;;;;;4897974;29;20232;-78
2024/01/03 02:02:42;;;;;;;10.70;10.20;;;8.70;99.90;;;;;;4899275;29;20284;-76
2024/01/03 02:05:09;;;;;;;10.63;10.07;;;8.70;99.90;;;;;;4897489;29;20208;-77
2024/01/03 02:07:37;;;;;;;10.57;10.00;;;8.70;99.90;;;;;;4897717;29;20256;-77
2024/01/03 02:10:04;;;;;;;10.53;9.93;;;8.70;99.90;;;;;;4905576;29;20208;-78
2024/01/03 02:12:31;;;;;;;10.90;10.30;;;8.60;99.90;;;;;;4898679;29;20228;-77
2024/01/03 02:14:58;;;;;;;10.90;10.30;;;8.60;99.90;;;;;;4897785;29;20208;-77
2024/01/03 02:17:27;;;;;;;10.40;9.83;;;8.60;99.90;;;;;;4897611;29;20213;-77
2024/01/03 02:20:00;;;;;;;10.70;10.10;;;8.60;99.90;;;;;;4897405;29;20587;-76
2024/01/03 02:22:28;;;;;;;10.63;10.07;;;8.60;99.90;;;;;;4897365;29;20240;-77
2024/01/03 02:24:55;;;;;;;10.40;9.80;;;8.60;99.90;;;;;;4897468;29;20234;-77
2024/01/03 02:27:22;;;;;;;10.50;9.90;;;8.60;99.90;;;;;;4897348;29;20203;-77
2024/01/03 02:29:49;;;;;;;10.37;9.77;;;8.60;99.90;;;;;;4897264;29;20759;-77
2024/01/03 02:32:16;;;;;;;10.60;10.00;;;8.60;99.90;;;;;;4898256;29;20220;-77
2024/01/03 02:34:42;;;;;;;10.07;9.53;;;8.60;99.90;;;;;;4898524;29;20253;-75
2024/01/03 02:37:10;;;;;;;10.50;9.90;;;8.60;99.90;;;;;;4897557;29;20585;-77
2024/01/03 02:39:38;;;;;;;10.53;9.93;;;8.60;99.90;;;;;;4898555;29;20224;-76
2024/01/03 02:42:05;;;;;;;10.30;9.80;;;8.60;99.90;;;;;;4905788;29;20227;-77
2024/01/03 02:44:32;;;;;;;10.63;10.03;;;8.60;99.90;;;;;;4897756;29;20204;-77
2024/01/03 02:46:59;;;;;;;10.80;10.20;;;8.50;99.90;;;;;;4898984;29;20256;-77
2024/01/03 02:49:26;;;;;;;10.37;9.83;;;8.50;99.90;;;;;;4902337;29;20253;-77
2024/01/03 02:51:52;;;;;;;10.90;10.30;;;8.50;99.90;;;;;;4898061;29;20438;-77
2024/01/03 02:54:19;;;;;;;10.90;10.30;;;8.50;99.90;;;;;;4897129;29;20273;-77
2024/01/03 02:56:47;;;;;;;10.70;10.00;;;8.40;99.90;;;;;;4897112;29;20213;-77
2024/01/03 02:59:14;;;;;;;10.70;10.10;;;8.50;99.90;;;;;;4898068;29;20199;-77
2024/01/03 03:01:41;;;;;;;11.03;10.43;;;8.50;99.90;;;;;;4899062;29;20661;-77
2024/01/03 03:04:07;;;;;;;10.77;10.17;;;8.40;99.90;;;;;;4897494;29;20620;-76
2024/01/03 03:06:34;;;;;;;10.87;10.27;;;8.40;99.90;;;;;;4896578;29;20208;-77
2024/01/03 03:09:01;;;;;;;10.83;10.23;;;8.50;99.90;;;;;;4897093;29;20233;-77
2024/01/03 03:11:28;;;;;;;10.60;10.10;;;8.40;99.90;;;;;;4896202;29;20256;-77
2024/01/03 03:13:56;;;;;;;11.43;10.83;;;8.40;99.90;;;;;;4898983;29;20201;-77
2024/01/03 03:16:22;;;;;;;10.43;9.83;;;8.40;99.90;;;;;;4898050;29;20261;-77
2024/01/03 03:18:49;;;;;;;11.00;10.40;;;8.40;99.90;;;;;;4896832;29;20592;-77
2024/01/03 03:21:16;;;;;;;11.27;10.67;;;8.40;99.90;;;;;;4897105;29;20598;-77
2024/01/03 03:23:43;;;;;;;10.90;10.30;;;8.40;99.90;;;;;;4897637;29;20212;-77
2024/01/03 03:26:11;;;;;;;11.30;10.60;;;8.40;99.90;;;;;;4896404;29;20304;-77
2024/01/03 03:28:38;;;;;;;11.10;10.50;;;8.40;99.90;;;;;;4896631;29;20627;-76
2024/01/03 03:31:06;;;;;;;11.30;10.60;;;8.50;99.90;;;;;;4897328;29;20196;-77
2024/01/03 03:33:33;;;;;;;11.80;11.00;;;8.50;99.90;;;;;;4896881;29;20616;-76
2024/01/03 03:36:00;;;;;;;11.20;10.60;;;8.40;99.90;;;;;;4895797;29;20211;-77
2024/01/03 03:38:27;;;;;;;11.07;10.47;;;8.40;99.90;;;;;;4896054;29;20220;-77
2024/01/03 03:40:53;;;;;;;11.00;10.40;;;8.30;99.90;;;;;;4891658;29;20647;-76
2024/01/03 03:43:20;;;;;;;11.13;10.53;;;8.30;99.90;;;;;;4897596;29;20279;-77
2024/01/03 03:45:47;;;;;;;10.80;10.20;;;8.20;99.90;;;;;;4897944;29;20213;-76
2024/01/03 03:48:15;;;;;;;11.40;10.80;;;8.20;99.90;;;;;;4897062;29;20205;-77
2024/01/03 03:50:42;;;;;;;11.17;10.57;;;8.10;99.90;;;;;;4894293;29;20692;-78
2024/01/03 03:53:10;;;;;;;10.00;9.50;;;8.10;99.90;;;;;;4901199;29;20731;-78
2024/01/03 03:55:41;;;;;;;10.70;10.00;;;8.00;99.90;;;;;;4897061;29;20204;-79
2024/01/03 03:58:08;;;;;;;10.20;9.60;;;8.00;99.90;;;;;;4899572;29;20677;-78
2024/01/03 04:00:35;;;;;;;11.03;10.43;;;7.90;99.90;;;;;;4885098;29;20673;-78
2024/01/03 04:03:06;;;;;;;10.90;10.20;;;7.90;99.90;;;;;;4890421;29;20224;-78
2024/01/03 04:05:34;;;;;;;10.50;9.90;;;7.90;99.90;;;;;;4894132;29;20213;-78
2024/01/03 04:08:01;;;;;;;10.40;9.70;;;7.90;99.90;;;;;;4887625;29;20209;-78
2024/01/03 04:10:28;;;;;;;10.97;10.37;;;7.80;99.90;;;;;;4893113;29;20667;-78
2024/01/03 04:12:55;;;;;;;11.30;10.70;;;7.80;99.90;;;;;;4890256;29;20240;-77
2024/01/03 04:15:22;;;;;;;11.90;11.20;;;7.70;99.90;;;;;;4893495;29;20206;-77
2024/01/03 04:17:49;;;;;;;11.77;11.07;;;7.80;99.90;;;;;;4893268;29;20205;-78
2024/01/03 04:20:16;;;;;;;11.33;10.70;;;7.70;99.90;;;;;;4897368;29;20422;-78
2024/01/03 04:22:46;;;;;;;11.40;10.80;;;7.70;99.90;;;;;;4895174;29;20692;-77
2024/01/03 04:25:13;;;;;;;11.40;10.80;;;7.70;99.90;;;;;;4904310;29;20728;-77
2024/01/03 04:27:40;;;;;;;11.67;10.97;;;7.60;99.90;;;;;;4897978;29;20431;-78
2024/01/03 04:30:07;;;;;;;11.50;10.63;;;7.60;99.90;;;;;;4894637;29;20726;-77
2024/01/03 04:32:34;;;;;;;11.17;10.57;;;7.60;99.90;;;;;;4892664;29;20281;-77
2024/01/03 04:35:01;;;;;;;11.50;10.90;;;7.50;99.90;;;;;;4883092;29;20291;-77
2024/01/03 04:37:28;;;;;;;11.47;10.77;;;7.50;99.90;;;;;;4895146;29;20205;-77
2024/01/03 04:39:56;;;;;;;10.60;10.10;;;7.50;99.90;;;;;;4890855;29;20202;-77
2024/01/03 04:42:23;;;;;;;11.47;10.77;;;7.60;99.90;;;;;;4893861;29;20664;-80
2024/01/03 04:44:50;;;;;;;11.43;10.63;;;7.50;99.90;;;;;;4893687;29;20208;-79
2024/01/03 04:47:17;;;;;;;11.30;10.70;;;7.50;99.90;;;;;;4894275;29;20288;-80
2024/01/03 04:49:44;;;;;;;11.57;10.97;;;7.50;99.90;;;;;;4896567;29;20249;-80
2024/01/03 04:52:11;;;;;;;11.43;10.83;;;7.50;99.90;;;;;;4891315;29;20245;-80
2024/01/03 04:54:38;;;;;;;11.50;10.70;;;7.50;99.90;;;;;;4896488;29;20625;-80
2024/01/03 04:57:06;;;;;;;11.53;10.93;;;7.50;99.90;;;;;;4902398;29;20631;-80
2024/01/03 04:59:33;;;;;;;11.70;11.10;;;7.50;99.90;;;;;;4906978;29;20204;-79
2024/01/03 05:02:00;;;;;;;12.10;11.30;;;7.50;99.90;;;;;;4905654;29;20236;-79
2024/01/03 05:04:27;;;;;;;11.73;11.00;;;7.50;99.90;;;;;;4899203;29;20639;-80
2024/01/03 05:06:54;;;;;;;12.40;11.50;;;7.50;99.90;;;;;;4899364;29;20620;-80
2024/01/03 05:09:21;;;;;;;12.00;11.20;;;7.50;99.90;;;;;;4898150;29;20601;-80
2024/01/03 05:11:48;;;;;;;12.03;11.33;;;7.50;99.90;;;;;;4898686;29;20231;-79
2024/01/03 05:14:16;;;;;;;12.37;11.67;;;7.50;99.90;;;;;;4902046;29;20195;-79
2024/01/03 05:16:43;;;;;;;11.83;11.23;;;7.60;99.90;;;;;;4895586;29;20205;-79
2024/01/03 05:19:10;;;;;;;12.10;11.40;;;7.60;99.90;;;;;;4891737;29;20268;-80
2024/01/03 05:21:36;;;;;;;12.03;11.43;;;7.60;99.90;;;;;;4895688;29;20243;-77
2024/01/03 05:24:03;;;;;;;11.90;11.30;;;7.60;99.90;;;;;;4900583;29;20200;-77
2024/01/03 05:26:30;;;;;;;12.27;11.47;;;7.60;99.90;;;;;;4900049;29;20732;-77
2024/01/03 05:28:57;;;;;;;12.63;11.83;;;7.60;99.90;;;;;;4896487;29;20581;-79
2024/01/03 05:31:25;;;;;;;12.30;11.30;;;7.70;99.90;;;;;;4897779;29;20636;-77
2024/01/03 05:33:52;;;;;;;12.00;11.30;;;7.70;99.90;;;;;;4888301;29;20200;-79
2024/01/03 05:36:18;;;;;;;12.03;11.27;;;7.70;99.90;;;;;;4898625;29;20207;-77
2024/01/03 05:38:45;;;;;;;11.77;11.17;;;7.70;99.90;;;;;;4902403;29;20531;-78
2024/01/03 05:41:12;;;;;;;12.07;11.37;;;7.70;99.90;;;;;;4896851;29;20251;-77
2024/01/03 05:43:39;;;;;;;12.47;11.67;;;7.80;99.90;;;;;;4898093;29;20228;-77
2024/01/03 05:46:06;;;;;;;12.40;11.63;;;7.70;99.90;;;;;;4897975;29;20752;-78
2024/01/03 05:48:34;;;;;;;12.57;11.57;;;7.70;99.90;;;;;;4899254;29;20207;-77
2024/01/03 05:51:02;;;;;;;12.20;11.50;;;7.70;99.90;;;;;;4899700;29;20201;-77
2024/01/03 05:53:29;;;;;;;11.87;10.70;;;7.70;99.90;;;;;;4898376;29;20234;-78
2024/01/03 05:55:56;;;;;;;11.00;10.40;;;7.70;99.90;;;;;;4899466;29;20226;-77
2024/01/03 05:58:23;;;;;;;11.20;10.60;;;7.60;99.90;;;;;;4898974;29;20687;-78
2024/01/03 06:00:50;;;;;;;11.00;10.30;;;7.60;99.90;;;;;;4899226;29;20617;-77
2024/01/03 06:03:16;;;;;;;11.60;10.70;;;7.60;99.90;;;;;;4897639;29;20224;-77
2024/01/03 06:05:44;;;;;;;11.23;10.30;;;7.60;99.90;;;;;;4897710;29;20645;-78
2024/01/03 06:08:11;;;;;;;10.50;9.90;;;7.60;99.90;;;;;;4890980;29;20262;-78
2024/01/03 06:10:38;;;;;;;10.50;9.90;;;7.60;99.90;;;;;;4895806;29;20571;-77
2024/01/03 06:13:05;;;;;;;10.90;10.20;;;7.60;99.90;;;;;;4897497;29;20775;-77
2024/01/03 06:15:32;;;;;;;11.03;10.40;;;7.70;99.90;;;;;;4895640;29;20197;-77
2024/01/03 06:17:59;;;;;;;10.70;10.10;;;7.70;99.90;;;;;;4898024;29;20278;-77
2024/01/03 06:20:25;;;;;;;10.90;10.30;;;7.70;99.90;;;;;;4903058;29;20621;-77
2024/01/03 06:22:52;;;;;;;11.07;10.37;;;7.70;99.90;;;;;;4899027;29;20272;-77
2024/01/03 06:25:19;;;;;;;11.30;10.70;;;7.80;99.90;;;;;;4898045;29;20248;-77
2024/01/03 06:27:46;;;;;;;10.80;10.30;;;7.70;99.90;;;;;;4899039;29;20240;-77
2024/01/03 06:30:13;;;;;;;11.07;10.47;;;7.70;99.90;;;;;;4910619;29;20255;-77
2024/01/03 06:32:40;;;;;;;11.27;10.67;;;7.70;99.90;;;;;;4897277;29;20219;-77
2024/01/03 06:35:08;;;;;;;11.00;10.40;;;7.70;99.90;;;;;;4893148;29;20665;-78
2024/01/03 06:37:35;;;;;;;11.10;10.50;;;7.70;99.90;;;;;;4898102;29;20417;-78
2024/01/03 06:40:03;;;;;;;11.30;10.60;;;7.60;99.90;;;;;;4897505;29;20231;-77
2024/01/03 06:42:30;;;;;;;11.53;10.73;;;7.60;99.90;;;;;;4898507;29;20224;-77
2024/01/03 06:44:57;;;;;;;11.53;10.80;;;7.60;99.90;;;;;;4899651;29;20208;-77
2024/01/03 06:47:24;;;;;;;11.30;10.60;;;7.60;99.90;;;;;;4899366;29;20208;-76
2024/01/03 06:49:50;;;;;;;11.63;10.93;;;7.60;99.90;;;;;;4897455;29;20716;-77
2024/01/03 06:52:18;;;;;;;11.93;11.23;;;7.60;99.90;;;;;;4904757;29;20700;-77
2024/01/03 06:54:44;;;;;;;11.50;10.80;;;7.60;99.90;;;;;;4897319;29;20215;-77
2024/01/03 06:57:12;;;;;;;11.50;10.90;;;7.60;99.90;;;;;;4898252;29;20249;-77
2024/01/03 06:59:40;;;;;;;11.60;10.90;;;7.60;99.90;;;;;;4898194;29;20204;-77
2024/01/03 07:02:07;;;;;;;11.17;10.57;;;7.60;99.90;;;;;;4896294;29;20225;-77
2024/01/03 07:04:33;;;;;;;11.33;10.70;;;7.60;99.90;;;;;;4896070;29;20201;-80
2024/01/03 07:07:00;;;;;;;10.90;10.30;;;7.60;99.90;;;;;;4890808;29;20204;-77
2024/01/03 07:09:27;;;;;;;11.20;10.50;;;7.60;99.90;;;;;;4900085;29;20644;-79
2024/01/03 07:11:54;;;;;;;11.00;10.40;;;7.60;99.90;;;;;;4896718;29;20232;-77
2024/01/03 07:14:22;;;;;;;11.60;10.80;;;7.60;99.90;;;;;;4899327;29;20204;-77
2024/01/03 07:16:49;;;;;;;11.60;10.80;;;7.60;99.90;;;;;;4899794;29;20621;-80
2024/01/03 07:19:16;;;;;;;11.10;10.40;;;7.70;99.90;;;;;;4896195;29;20232;-77
2024/01/03 07:21:43;;;;;;;11.07;10.47;;;7.70;99.90;;;;;;4901504;29;20259;-77
2024/01/03 07:24:12;;;;;;;11.27;10.57;;;7.70;99.90;;;;;;4901807;29;20232;-80
2024/01/03 07:26:39;;;;;;;11.00;10.40;;;7.70;99.90;;;;;;4888340;29;20208;-76
2024/01/03 07:29:06;;;;;;;11.43;10.73;;;7.80;99.90;;;;;;4897007;29;20633;-76
2024/01/03 07:31:34;;;;;;;11.47;10.70;;;7.90;99.90;;;;;;4897554;29;20618;-77
2024/01/03 07:34:01;;;;;;;11.20;10.60;;;7.90;99.90;;;;;;4896455;29;20212;-77
2024/01/03 07:36:27;;;;;;;11.60;10.90;;;7.90;99.90;;;;;;4896242;29;20224;-77
2024/01/03 07:38:57;;;;;;;11.33;10.43;;;8.00;99.90;;;;;;4896581;29;20624;-78
2024/01/03 07:41:28;;;;;;;11.27;10.57;;;8.10;99.90;;;;;;4897713;29;20248;-77
2024/01/03 07:43:55;;;;;;;10.73;10.13;;;8.10;99.90;;;;;;4892695;29;20201;-77
2024/01/03 07:46:23;;;;;;;11.20;10.50;;;8.20;99.90;;;;;;4892009;29;20634;-77
2024/01/03 07:48:51;;;;;;;10.67;10.07;;;8.20;99.90;;;;;;4895504;29;20281;-78
2024/01/03 07:51:19;;;;;;;10.80;10.17;;;8.20;99.90;;;;;;4898710;29;20257;-76
2024/01/03 07:53:45;;;;;;;11.00;10.40;;;8.20;99.90;;;;;;4898521;29;20929;-76
2024/01/03 07:56:13;;;;;;;11.37;10.70;;;8.30;99.90;;;;;;4904781;29;20228;-76
2024/01/03 07:58:39;;;;;;;11.57;10.77;;;8.30;99.90;;;;;;4896122;29;20260;-77
2024/01/03 08:01:06;;;;;;;11.93;11.13;;;8.30;99.90;;;;;;4897606;29;20188;-77
2024/01/03 08:03:33;;;;;;;10.97;10.37;;;8.40;99.90;;;;;;4895637;29;20224;-76
2024/01/03 08:06:02;;;;;;;11.60;10.90;;;8.50;99.90;;;;;;4895858;29;20201;-76
2024/01/03 08:08:28;;;;;;;11.23;10.63;;;8.60;99.90;;;;;;4894882;29;20260;-77
2024/01/03 08:10:55;;;;;;;11.40;10.60;;;8.60;99.90;;;;;;4894778;29;20231;-76
2024/01/03 08:13:23;;;;;;;10.50;9.90;;;8.70;99.90;;;;;;4894534;29;20716;-77
2024/01/03 08:15:50;;;;;;;10.90;10.20;;;8.70;99.90;;;;;;4894955;29;20204;-76
2024/01/03 08:18:17;;;;;;;10.93;10.30;;;8.80;99.90;;;;;;4898443;29;20192;-76
2024/01/03 08:20:44;;;;;;;11.00;10.40;;;8.90;99.90;;;;;;4898736;29;20235;-76
2024/01/03 08:23:12;;;;;;;10.90;10.30;;;9.00;99.90;;;;;;4899959;29;20569;-76
2024/01/03 08:25:39;;;;;;;11.20;10.60;;;9.10;99.90;;;;;;4897853;29;20629;-77
2024/01/03 08:28:06;;;;;;;11.83;11.00;;;9.20;99.90;;;;;;4890876;29;20279;-77
2024/01/03 08:30:33;;;;;;;11.73;10.93;;;9.20;99.90;;;;;;4897674;29;20205;-77
2024/01/03 08:33:00;;;;;;;11.70;10.90;;;9.20;99.90;;;;;;4898270;29;20604;-76
2024/01/03 08:35:26;;;;;;;12.30;11.40;;;9.20;99.90;;;;;;4900482;29;20215;-77
2024/01/03 08:37:53;;;;;;;11.53;10.83;;;9.20;99.90;;;;;;4899199;29;20208;-77
2024/01/03 08:40:22;;;;;;;11.30;10.60;;;9.30;99.90;;;;;;4899220;29;20256;-77
2024/01/03 08:42:49;;;;;;;10.97;10.37;;;9.40;99.90;;;;;;4900076;29;20269;-77
2024/01/03 08:45:16;;;;;;;10.60;9.90;;;9.40;99.90;;;;;;4900270;29;20232;-77
2024/01/03 08:47:43;;;;;;;10.67;9.77;;;9.50;99.90;;;;;;4900620;29;20618;-77
2024/01/03 08:50:10;;;;;;;10.67;9.80;;;9.50;99.90;;;;;;4900068;29;20213;-77
2024/01/03 08:52:37;;;;;;;10.73;9.93;;;9.60;99.90;;;;;;4899882;29;20625;-77
2024/01/03 08:55:04;;;;;;;11.57;10.67;;;9.70;99.90;;;;;;4898371;29;20246;-77
2024/01/03 08:57:32;;;;;;;11.30;10.50;;;9.70;99.90;;;;;;4900451;29;20249;-76
2024/01/03 08:59:59;;;;;;;10.70;9.80;;;9.70;99.90;;;;;;4899950;29;20680;-76
2024/01/03 09:02:26;;;;;;;11.03;10.20;;;9.70;99.90;;;;;;4899368;29;20257;-77
2024/01/03 09:04:53;;;;;;;10.97;10.10;;;9.70;99.90;;;;;;4898366;29;20642;-78
2024/01/03 09:07:20;;;;;;;10.93;10.03;;;9.60;99.90;;;;;;4899819;29;20558;-77
2024/01/03 09:09:47;;;;;;;10.70;10.00;;;9.60;99.90;;;;;;4898864;29;20562;-77
2024/01/03 09:12:15;;;;;;;10.77;10.07;;;9.60;99.90;;;;;;4900418;29;20233;-77
2024/01/03 09:14:43;;;;;;;10.70;9.83;;;9.60;99.90;;;;;;4898581;29;20213;-77
2024/01/03 09:17:10;;;;;;;10.73;9.90;;;9.60;99.90;;;;;;4900264;29;20753;-77
2024/01/03 09:19:37;;;;;;;11.07;10.17;;;9.60;99.90;;;;;;4898895;29;20233;-77
2024/01/03 09:22:04;;;;;;;11.30;10.40;;;9.60;99.90;;;;;;4898797;29;20281;-77
2024/01/03 09:24:31;;;;;;;10.80;10.10;;;9.70;99.90;;;;;;4899114;29;20757;-77
2024/01/03 09:26:58;;;;;;;11.20;10.40;;;9.70;99.90;;;;;;4899471;29;20205;-77
2024/01/03 09:29:24;;;;;;;11.50;10.47;;;9.80;99.90;;;;;;4900503;29;20633;-78
2024/01/03 09:31:52;;;;;;;10.83;10.07;;;10.00;99.90;;;;;;4900065;29;20233;-77
2024/01/03 09:34:19;;;;;;;11.47;10.67;;;10.10;99.90;;;;;;4898614;29;20225;-76
2024/01/03 09:36:46;;;;;;;11.47;10.77;;;10.30;99.90;;;;;;4898481;29;20201;-77
2024/01/03 09:39:16;;;;;;;11.20;10.50;;;10.50;99.90;;;;;;4889702;29;20287;-77
2024/01/03 09:41:45;;;;;;;11.93;11.20;;;10.50;99.90;;;;;;4897683;29;20209;-81
2024/01/03 09:44:13;;;;;;;11.20;10.40;;;10.60;99.90;;;;;;4901012;29;20705;-78
2024/01/03 09:46:40;;;;;;;3.40;3.10;;;10.70;99.90;;;;;;4901192;29;20231;-78
2024/01/03 09:49:09;;;;;;;10.63;9.83;;;10.70;99.90;;;;;;4902279;29;20217;-78
2024/01/03 09:51:36;;;;;;;10.73;9.97;;;10.60;99.90;;;;;;4894994;29;20675;-80
2024/01/03 09:54:07;;;;;;;4.57;4.13;;;10.60;99.90;;;;;;4887764;29;20211;-78
2024/01/03 09:56:37;;;;;;;7.47;6.87;;;10.70;99.90;;;;;;4900157;29;20205;-77
2024/01/03 09:59:03;;;;;;;4.73;4.33;;;10.70;99.90;;;;;;4899915;29;20217;-78
2024/01/03 10:01:30;;;;;;;7.17;6.53;;;10.60;99.90;;;;;;4900645;29;20671;-78
2024/01/03 10:03:57;;;;;;;10.17;9.40;;;10.50;99.90;;;;;;4896442;29;20237;-78
2024/01/03 10:06:26;;;;;;;5.00;4.20;;;10.40;99.90;;;;;;4900438;29;20270;-78
2024/01/03 10:09:00;;;;;;;11.07;10.20;;;10.30;99.90;;;;;;4900736;29;20208;-78
2024/01/03 10:11:26;;;;;;;10.70;10.00;;;10.30;99.90;;;;;;4892360;29;20301;-78
2024/01/03 10:13:54;;;;;;;11.47;10.50;;;10.20;99.90;;;;;;4898345;29;20225;-78
2024/01/03 10:16:25;;;;;;;11.20;10.33;;;10.20;99.90;;;;;;4897288;29;20211;-78
2024/01/03 10:19:10;;;;;;;10.50;9.80;;;10.20;99.90;;;;;;4904391;29;20254;-78
2024/01/03 10:21:40;;;;;;;11.37;10.47;;;10.20;99.90;;;;;;4904233;29;20209;-78
2024/01/03 10:24:08;;;;;;;11.03;10.20;;;10.30;99.90;;;;;;4898345;29;20218;-78
2024/01/03 10:26:35;;;;;;;10.97;10.17;;;10.30;99.90;;;;;;4899932;29;20225;-78
2024/01/03 10:29:12;;;;;;;10.73;10.03;;;10.40;99.90;;;;;;4897643;29;20608;-77
2024/01/03 10:31:39;;;;;;;10.33;9.63;;;10.50;99.90;;;;;;4899003;29;20453;-78
2024/01/03 10:34:06;;;;;;;11.43;10.53;;;10.70;99.90;;;;;;4899523;29;20207;-76
2024/01/03 10:36:34;;;;;;;9.77;8.97;;;10.80;99.90;;;;;;4898964;29;20493;-78
2024/01/03 10:39:04;;;;;;;3.10;2.77;;;10.80;99.90;;;;;;4898273;29;20293;-78
2024/01/03 10:41:31;;;;;;;5.67;3.03;;;10.80;99.90;;;;;;4897523;29;20190;-78
2024/01/03 10:44:01;;;;;;;11.33;10.57;;;10.80;99.90;;;;;;4896640;29;20310;-77
2024/01/03 10:46:28;;;;;;;11.13;10.43;;;10.80;99.90;;;;;;4896605;29;20202;-78
2024/01/03 10:48:55;;;;;;;11.27;10.47;;;10.80;99.90;;;;;;4897404;29;20261;-78
2024/01/03 10:51:24;;;;;;;11.97;11.10;;;10.80;99.90;;;;;;4885906;29;20259;-77
2024/01/03 10:53:53;;;;;;;11.53;10.83;;;10.80;99.90;;;;;;4895738;29;20200;-78
2024/01/03 10:56:21;;;;;;;11.67;10.87;;;10.70;99.90;;;;;;4896505;29;20653;-77
2024/01/03 10:58:49;;;;;;;12.10;11.10;;;10.70;99.90;;;;;;4893855;29;20266;-77
2024/01/03 11:01:19;;;;;;;12.10;11.30;;;10.60;99.90;;;;;;4898802;29;20221;-78
2024/01/03 11:03:54;;;;;;;11.80;11.00;;;10.70;99.90;;;;;;4896700;29;20761;-76
2024/01/03 11:06:27;;;;;;;11.47;10.67;;;10.70;99.90;;;;;;4898098;29;20331;-79
2024/01/03 11:08:55;;;;;;;11.30;10.70;;;10.70;99.90;;;;;;4896481;29;20682;-79
2024/01/03 11:11:34;;;;;;;11.57;10.87;;;10.80;99.90;;;;;;4897589;29;20246;-77
2024/01/03 11:14:02;;;;;;;12.10;11.30;;;10.90;99.90;;;;;;4897614;29;20249;-78
2024/01/03 11:16:37;;;;;;;11.33;10.63;;;11.10;99.90;;;;;;4891266;29;20198;-77
2024/01/03 11:19:05;;;;;;;11.80;11.00;;;11.20;99.90;;;;;;4893553;29;20203;-77
2024/01/03 11:21:38;;;;;;;12.20;11.20;;;11.30;99.90;;;;;;4896177;29;20209;-77
2024/01/03 11:24:50;;;;;;;11.53;10.73;;;11.40;99.90;;;;;;4889183;29;20228;-78
2024/01/03 11:27:25;;;;;;;11.03;10.17;;;11.40;99.90;;;;;;4897453;29;20207;-77
2024/01/03 11:29:55;;;;;;;11.20;10.40;;;11.40;99.90;;;;;;4896099;29;20309;-77
2024/01/03 11:32:31;;;;;;;11.03;10.17;;;11.40;99.90;;;;;;4897021;29;20227;-78
2024/01/03 11:34:58;;;;;;;11.13;10.33;;;11.50;99.90;;;;;;4897287;29;20621;-78
2024/01/03 11:37:34;;;;;;;10.73;10.13;;;11.60;99.90;;;;;;4895515;29;20231;-78
2024/01/03 11:40:00;;;;;;;10.87;10.07;;;11.70;99.90;;;;;;4896394;29;20215;-79
2024/01/03 11:42:33;;;;;;;11.03;10.23;;;11.70;99.90;;;;;;4903549;29;20224;-80
2024/01/03 11:45:02;;;;;;;11.23;10.53;;;11.60;99.90;;;;;;4902206;29;20234;-81
2024/01/03 11:47:29;;;;;;;11.60;10.90;;;11.50;99.90;;;;;;4896475;29;20208;-77
2024/01/03 11:49:57;;;;;;;9.37;8.67;;;11.50;99.90;;;;;;4893485;29;20287;-78
2024/01/03 11:52:24;;;;;;;8.50;7.80;;;11.50;99.90;;;;;;4896885;29;20720;-77
2024/01/03 11:54:51;;;;;;;10.83;10.13;;;11.50;99.90;;;;;;4889930;29;20736;-78
2024/01/03 11:57:21;;;;;;;11.27;10.57;;;11.50;99.90;;;;;;4893786;29;20665;-77
2024/01/03 11:59:49;;;;;;;11.10;10.43;;;11.50;99.90;;;;;;4888426;29;20217;-78
2024/01/03 12:02:16;;;;;;;11.20;10.40;;;11.50;99.90;;;;;;4890876;29;20842;-78
2024/01/03 12:04:43;;;;;;;11.07;10.37;;;11.50;99.90;;;;;;4896279;29;20220;-77
2024/01/03 12:07:13;;;;;;;12.07;11.00;;;11.40;99.90;;;;;;4893055;29;20204;-78
2024/01/03 12:09:40;;;;;;;7.10;6.60;;;11.40;99.90;;;;;;4887395;29;20238;-78
2024/01/03 12:12:08;;;;;;;11.30;10.60;;;11.30;99.90;;;;;;4890288;29;20368;-77
2024/01/03 12:14:34;;;;;;;10.70;10.00;;;11.30;99.90;;;;;;4896624;29;20669;-77
2024/01/03 12:17:03;;;;;;;10.50;9.90;;;11.20;99.90;;;;;;4897282;29;20626;-77
2024/01/03 12:19:31;;;;;;;5.50;5.00;;;11.10;99.90;;;;;;4895057;29;20207;-78
2024/01/03 12:21:59;;;;;;;10.93;10.13;;;11.20;99.90;;;;;;4892579;29;20220;-80
2024/01/03 12:24:39;;;;;;;10.60;9.90;;;11.20;99.90;;;;;;4896139;29;20221;-79
2024/01/03 12:27:06;;;;;;;10.10;9.50;;;11.30;99.90;;;;;;4901129;29;20250;-79
2024/01/03 12:29:34;;;;;;;10.60;9.90;;;11.30;99.90;;;;;;4903127;29;20203;-79
2024/01/03 12:32:10;;;;;;;10.17;9.57;;;11.30;99.90;;;;;;4896815;29;20287;-79
2024/01/03 12:34:37;;;;;;;10.50;9.90;;;11.40;99.90;;;;;;4896096;29;20482;-79
2024/01/03 12:37:04;;;;;;;10.67;10.07;;;11.40;99.90;;;;;;4897448;29;20207;-79
2024/01/03 12:39:34;;;;;;;10.20;9.60;;;11.30;99.90;;;;;;4897353;29;20254;-79
2024/01/03 12:42:04;;;;;;;10.63;10.00;;;11.20;99.90;;;;;;4894472;29;20323;-79